sensor_id;sensor_type;location;lat;lon;timestamp;P1;durP1;ratioP1;P2;durP2;ratioP2
29848;SDS011;16728;50.832;5.590;2023-09-30T00:00:28;12.70;;;6.55;;
29848;SDS011;16728;50.832;5.590;2023-09-30T00:03:30;10.25;;;6.10;;
29848;SDS011;16728;50.832;5.590;2023-09-30T00:06:32;13.85;;;6.32;;
29848;SDS011;16728;50.832;5.590;2023-09-30T00:09:34;9.57;;;6.15;;
29848;SDS011;16728;50.832;5.590;2023-09-30T00:12:36;8.68;;;6.07;;
29848;SDS011;16728;50.832;5.590;2023-09-30T00:15:38;10.13;;;6.00;;
29848;SDS011;16728;50.832;5.590;2023-09-30T00:18:40;10.27;;;6.60;;
29848;SDS011;16728;50.832;5.590;2023-09-30T00:21:42;8.95;;;6.30;;
29848;SDS011;16728;50.832;5.590;2023-09-30T00:24:44;15.25;;;6.00;;
29848;SDS011;16728;50.832;5.590;2023-09-30T00:27:47;7.60;;;5.80;;
29848;SDS011;16728;50.832;5.590;2023-09-30T00:33:53;10.65;;;6.75;;
29848;SDS011;16728;50.832;5.590;2023-09-30T00:37:05;10.93;;;6.15;;
29848;SDS011;16728;50.832;5.590;2023-09-30T00:43:20;8.40;;;6.28;;
29848;SDS011;16728;50.832;5.590;2023-09-30T00:46:29;7.80;;;5.70;;
29848;SDS011;16728;50.832;5.590;2023-09-30T00:49:33;8.88;;;6.65;;
29848;SDS011;16728;50.832;5.590;2023-09-30T00:55:50;10.15;;;6.60;;
29848;SDS011;16728;50.832;5.590;2023-09-30T01:01:56;11.68;;;6.35;;
29848;SDS011;16728;50.832;5.590;2023-09-30T01:05:00;11.63;;;6.50;;
29848;SDS011;16728;50.832;5.590;2023-09-30T01:08:02;10.43;;;6.90;;
29848;SDS011;16728;50.832;5.590;2023-09-30T01:11:05;7.00;;;6.30;;
29848;SDS011;16728;50.832;5.590;2023-09-30T01:14:23;10.35;;;6.20;;
29848;SDS011;16728;50.832;5.590;2023-09-30T01:17:29;9.68;;;6.60;;
29848;SDS011;16728;50.832;5.590;2023-09-30T01:20:31;8.65;;;6.38;;
29848;SDS011;16728;50.832;5.590;2023-09-30T01:23:33;9.75;;;6.57;;
29848;SDS011;16728;50.832;5.590;2023-09-30T01:26:36;14.23;;;6.53;;
29848;SDS011;16728;50.832;5.590;2023-09-30T01:29:39;10.60;;;6.97;;
29848;SDS011;16728;50.832;5.590;2023-09-30T01:32:41;12.23;;;6.78;;
29848;SDS011;16728;50.832;5.590;2023-09-30T01:35:45;14.13;;;7.43;;
29848;SDS011;16728;50.832;5.590;2023-09-30T01:38:47;9.87;;;6.93;;
29848;SDS011;16728;50.832;5.590;2023-09-30T01:41:49;13.73;;;7.10;;
29848;SDS011;16728;50.832;5.590;2023-09-30T01:44:51;8.98;;;6.82;;
29848;SDS011;16728;50.832;5.590;2023-09-30T01:47:53;9.48;;;7.38;;
29848;SDS011;16728;50.832;5.590;2023-09-30T01:50:55;16.38;;;7.47;;
29848;SDS011;16728;50.832;5.590;2023-09-30T01:53:57;11.02;;;7.10;;
29848;SDS011;16728;50.832;5.590;2023-09-30T01:57:00;12.47;;;6.90;;
29848;SDS011;16728;50.832;5.590;2023-09-30T02:00:01;10.80;;;6.45;;
29848;SDS011;16728;50.832;5.590;2023-09-30T02:03:04;12.18;;;6.75;;
29848;SDS011;16728;50.832;5.590;2023-09-30T02:06:06;9.80;;;7.13;;
29848;SDS011;16728;50.832;5.590;2023-09-30T02:09:08;9.68;;;7.28;;
29848;SDS011;16728;50.832;5.590;2023-09-30T02:12:10;15.63;;;7.05;;
29848;SDS011;16728;50.832;5.590;2023-09-30T02:15:13;11.70;;;6.65;;
29848;SDS011;16728;50.832;5.590;2023-09-30T02:18:15;12.53;;;6.50;;
29848;SDS011;16728;50.832;5.590;2023-09-30T02:21:17;8.25;;;6.53;;
29848;SDS011;16728;50.832;5.590;2023-09-30T02:24:19;11.73;;;7.07;;
29848;SDS011;16728;50.832;5.590;2023-09-30T02:27:21;14.40;;;7.22;;
29848;SDS011;16728;50.832;5.590;2023-09-30T02:30:23;13.10;;;7.10;;
29848;SDS011;16728;50.832;5.590;2023-09-30T02:33:25;15.13;;;6.75;;
29848;SDS011;16728;50.832;5.590;2023-09-30T02:39:44;9.95;;;6.78;;
29848;SDS011;16728;50.832;5.590;2023-09-30T02:42:47;10.10;;;6.50;;
29848;SDS011;16728;50.832;5.590;2023-09-30T02:45:49;12.20;;;6.60;;
29848;SDS011;16728;50.832;5.590;2023-09-30T02:48:51;11.48;;;6.45;;
29848;SDS011;16728;50.832;5.590;2023-09-30T02:51:53;10.95;;;6.82;;
29848;SDS011;16728;50.832;5.590;2023-09-30T02:54:55;10.30;;;6.75;;
29848;SDS011;16728;50.832;5.590;2023-09-30T02:58:00;8.90;;;6.53;;
29848;SDS011;16728;50.832;5.590;2023-09-30T03:01:03;10.23;;;6.65;;
29848;SDS011;16728;50.832;5.590;2023-09-30T03:04:18;11.65;;;7.22;;
29848;SDS011;16728;50.832;5.590;2023-09-30T03:07:21;9.35;;;6.68;;
29848;SDS011;16728;50.832;5.590;2023-09-30T03:10:24;10.88;;;6.43;;
29848;SDS011;16728;50.832;5.590;2023-09-30T03:13:26;10.93;;;6.65;;
29848;SDS011;16728;50.832;5.590;2023-09-30T03:16:28;11.48;;;7.25;;
29848;SDS011;16728;50.832;5.590;2023-09-30T03:19:32;9.88;;;7.63;;
29848;SDS011;16728;50.832;5.590;2023-09-30T03:22:34;11.90;;;7.50;;
29848;SDS011;16728;50.832;5.590;2023-09-30T03:25:37;12.98;;;7.53;;
29848;SDS011;16728;50.832;5.590;2023-09-30T03:28:39;10.93;;;8.20;;
29848;SDS011;16728;50.832;5.590;2023-09-30T03:31:40;12.07;;;7.57;;
29848;SDS011;16728;50.832;5.590;2023-09-30T03:34:42;11.95;;;7.75;;
29848;SDS011;16728;50.832;5.590;2023-09-30T03:37:47;12.82;;;6.97;;
29848;SDS011;16728;50.832;5.590;2023-09-30T03:40:49;11.18;;;7.50;;
29848;SDS011;16728;50.832;5.590;2023-09-30T03:43:51;14.88;;;7.38;;
29848;SDS011;16728;50.832;5.590;2023-09-30T03:46:55;11.32;;;7.60;;
29848;SDS011;16728;50.832;5.590;2023-09-30T03:53:01;16.35;;;7.47;;
29848;SDS011;16728;50.832;5.590;2023-09-30T03:56:04;12.57;;;7.72;;
29848;SDS011;16728;50.832;5.590;2023-09-30T03:59:05;11.40;;;7.63;;
29848;SDS011;16728;50.832;5.590;2023-09-30T04:02:08;13.18;;;8.35;;
29848;SDS011;16728;50.832;5.590;2023-09-30T04:05:10;13.45;;;8.65;;
29848;SDS011;16728;50.832;5.590;2023-09-30T04:08:14;15.15;;;9.52;;
29848;SDS011;16728;50.832;5.590;2023-09-30T04:11:16;11.70;;;8.52;;
29848;SDS011;16728;50.832;5.590;2023-09-30T04:17:22;13.70;;;9.30;;
29848;SDS011;16728;50.832;5.590;2023-09-30T04:20:24;11.40;;;8.98;;
29848;SDS011;16728;50.832;5.590;2023-09-30T04:23:37;16.77;;;9.60;;
29848;SDS011;16728;50.832;5.590;2023-09-30T04:26:39;11.65;;;9.18;;
29848;SDS011;16728;50.832;5.590;2023-09-30T04:32:45;13.13;;;9.63;;
29848;SDS011;16728;50.832;5.590;2023-09-30T04:35:47;14.40;;;8.93;;
29848;SDS011;16728;50.832;5.590;2023-09-30T04:38:49;14.02;;;9.30;;
29848;SDS011;16728;50.832;5.590;2023-09-30T04:41:51;14.73;;;8.80;;
29848;SDS011;16728;50.832;5.590;2023-09-30T04:44:53;14.38;;;9.27;;
29848;SDS011;16728;50.832;5.590;2023-09-30T04:47:57;14.00;;;9.45;;
29848;SDS011;16728;50.832;5.590;2023-09-30T04:50:59;16.27;;;9.13;;
29848;SDS011;16728;50.832;5.590;2023-09-30T04:54:00;15.73;;;8.68;;
29848;SDS011;16728;50.832;5.590;2023-09-30T04:57:03;16.17;;;9.60;;
29848;SDS011;16728;50.832;5.590;2023-09-30T05:00:06;12.93;;;9.02;;
29848;SDS011;16728;50.832;5.590;2023-09-30T05:03:12;14.50;;;8.52;;
29848;SDS011;16728;50.832;5.590;2023-09-30T05:06:14;13.85;;;8.95;;
29848;SDS011;16728;50.832;5.590;2023-09-30T05:09:17;13.38;;;9.15;;
29848;SDS011;16728;50.832;5.590;2023-09-30T05:12:19;14.02;;;8.52;;
29848;SDS011;16728;50.832;5.590;2023-09-30T05:15:21;13.60;;;9.18;;
29848;SDS011;16728;50.832;5.590;2023-09-30T05:18:24;15.85;;;10.05;;
29848;SDS011;16728;50.832;5.590;2023-09-30T05:21:26;14.38;;;9.15;;
29848;SDS011;16728;50.832;5.590;2023-09-30T05:24:28;17.40;;;10.07;;
29848;SDS011;16728;50.832;5.590;2023-09-30T05:27:30;14.70;;;9.10;;
29848;SDS011;16728;50.832;5.590;2023-09-30T05:30:33;17.65;;;10.07;;
29848;SDS011;16728;50.832;5.590;2023-09-30T05:33:36;17.35;;;9.75;;
29848;SDS011;16728;50.832;5.590;2023-09-30T05:36:38;16.75;;;10.02;;
29848;SDS011;16728;50.832;5.590;2023-09-30T05:39:41;17.80;;;11.02;;
29848;SDS011;16728;50.832;5.590;2023-09-30T05:42:44;18.30;;;10.27;;
29848;SDS011;16728;50.832;5.590;2023-09-30T05:45:46;16.77;;;10.38;;
29848;SDS011;16728;50.832;5.590;2023-09-30T05:48:51;25.02;;;11.07;;
29848;SDS011;16728;50.832;5.590;2023-09-30T05:51:53;18.98;;;10.30;;
29848;SDS011;16728;50.832;5.590;2023-09-30T05:54:56;15.80;;;10.35;;
29848;SDS011;16728;50.832;5.590;2023-09-30T05:57:58;20.08;;;12.10;;
29848;SDS011;16728;50.832;5.590;2023-09-30T06:01:02;14.90;;;10.02;;
29848;SDS011;16728;50.832;5.590;2023-09-30T06:04:09;17.08;;;11.38;;
29848;SDS011;16728;50.832;5.590;2023-09-30T06:07:12;12.32;;;8.50;;
29848;SDS011;16728;50.832;5.590;2023-09-30T06:10:13;16.80;;;10.93;;
29848;SDS011;16728;50.832;5.590;2023-09-30T06:13:20;20.88;;;11.68;;
29848;SDS011;16728;50.832;5.590;2023-09-30T06:16:22;20.92;;;12.02;;
29848;SDS011;16728;50.832;5.590;2023-09-30T06:19:25;20.45;;;11.27;;
29848;SDS011;16728;50.832;5.590;2023-09-30T06:22:28;21.42;;;11.82;;
29848;SDS011;16728;50.832;5.590;2023-09-30T06:25:30;19.70;;;10.77;;
29848;SDS011;16728;50.832;5.590;2023-09-30T06:28:34;14.88;;;10.68;;
29848;SDS011;16728;50.832;5.590;2023-09-30T06:31:42;18.30;;;11.05;;
29848;SDS011;16728;50.832;5.590;2023-09-30T06:34:44;13.40;;;9.80;;
29848;SDS011;16728;50.832;5.590;2023-09-30T06:37:46;21.13;;;9.98;;
29848;SDS011;16728;50.832;5.590;2023-09-30T06:40:48;13.05;;;9.68;;
29848;SDS011;16728;50.832;5.590;2023-09-30T06:43:50;12.15;;;9.55;;
29848;SDS011;16728;50.832;5.590;2023-09-30T06:46:53;11.43;;;8.70;;
29848;SDS011;16728;50.832;5.590;2023-09-30T06:49:56;13.00;;;8.88;;
29848;SDS011;16728;50.832;5.590;2023-09-30T06:52:58;11.48;;;8.70;;
29848;SDS011;16728;50.832;5.590;2023-09-30T06:56:04;10.07;;;8.38;;
29848;SDS011;16728;50.832;5.590;2023-09-30T06:59:06;14.65;;;9.43;;
29848;SDS011;16728;50.832;5.590;2023-09-30T07:02:08;13.40;;;9.50;;
29848;SDS011;16728;50.832;5.590;2023-09-30T07:05:11;13.55;;;8.50;;
29848;SDS011;16728;50.832;5.590;2023-09-30T07:08:18;11.88;;;8.57;;
29848;SDS011;16728;50.832;5.590;2023-09-30T07:11:28;9.43;;;8.02;;
29848;SDS011;16728;50.832;5.590;2023-09-30T07:14:33;9.32;;;8.30;;
29848;SDS011;16728;50.832;5.590;2023-09-30T07:17:35;11.00;;;9.40;;
29848;SDS011;16728;50.832;5.590;2023-09-30T07:20:38;13.70;;;9.07;;
29848;SDS011;16728;50.832;5.590;2023-09-30T07:23:40;9.90;;;8.85;;
29848;SDS011;16728;50.832;5.590;2023-09-30T07:26:42;10.98;;;9.05;;
29848;SDS011;16728;50.832;5.590;2023-09-30T07:29:44;10.52;;;8.95;;
29848;SDS011;16728;50.832;5.590;2023-09-30T07:32:46;12.60;;;9.55;;
29848;SDS011;16728;50.832;5.590;2023-09-30T07:35:48;11.20;;;8.95;;
29848;SDS011;16728;50.832;5.590;2023-09-30T07:38:50;11.93;;;9.18;;
29848;SDS011;16728;50.832;5.590;2023-09-30T07:41:52;10.32;;;8.63;;
29848;SDS011;16728;50.832;5.590;2023-09-30T07:44:54;10.15;;;8.40;;
29848;SDS011;16728;50.832;5.590;2023-09-30T07:47:56;11.48;;;8.55;;
29848;SDS011;16728;50.832;5.590;2023-09-30T07:51:00;12.55;;;8.77;;
29848;SDS011;16728;50.832;5.590;2023-09-30T07:54:03;10.02;;;8.75;;
29848;SDS011;16728;50.832;5.590;2023-09-30T07:57:25;11.55;;;9.00;;
29848;SDS011;16728;50.832;5.590;2023-09-30T08:00:27;11.20;;;8.02;;
29848;SDS011;16728;50.832;5.590;2023-09-30T08:03:29;9.95;;;8.70;;
29848;SDS011;16728;50.832;5.590;2023-09-30T08:06:32;11.88;;;8.00;;
29848;SDS011;16728;50.832;5.590;2023-09-30T08:09:34;9.70;;;7.78;;
29848;SDS011;16728;50.832;5.590;2023-09-30T08:12:39;9.60;;;7.93;;
29848;SDS011;16728;50.832;5.590;2023-09-30T08:15:42;10.63;;;8.57;;
29848;SDS011;16728;50.832;5.590;2023-09-30T08:18:44;10.43;;;8.55;;
29848;SDS011;16728;50.832;5.590;2023-09-30T08:21:48;11.10;;;8.57;;
29848;SDS011;16728;50.832;5.590;2023-09-30T08:24:50;11.15;;;8.45;;
29848;SDS011;16728;50.832;5.590;2023-09-30T08:27:52;10.80;;;8.68;;
29848;SDS011;16728;50.832;5.590;2023-09-30T08:30:56;9.07;;;7.90;;
29848;SDS011;16728;50.832;5.590;2023-09-30T08:34:06;8.50;;;7.70;;
29848;SDS011;16728;50.832;5.590;2023-09-30T08:37:09;7.68;;;6.72;;
29848;SDS011;16728;50.832;5.590;2023-09-30T08:40:11;11.13;;;7.38;;
29848;SDS011;16728;50.832;5.590;2023-09-30T08:43:13;8.85;;;7.05;;
29848;SDS011;16728;50.832;5.590;2023-09-30T08:46:20;9.13;;;7.22;;
29848;SDS011;16728;50.832;5.590;2023-09-30T08:49:22;10.43;;;7.00;;
29848;SDS011;16728;50.832;5.590;2023-09-30T08:52:27;9.88;;;7.55;;
29848;SDS011;16728;50.832;5.590;2023-09-30T08:55:31;8.75;;;7.80;;
29848;SDS011;16728;50.832;5.590;2023-09-30T08:58:35;8.07;;;7.10;;
29848;SDS011;16728;50.832;5.590;2023-09-30T09:01:38;8.55;;;7.15;;
29848;SDS011;16728;50.832;5.590;2023-09-30T09:04:41;12.93;;;7.72;;
29848;SDS011;16728;50.832;5.590;2023-09-30T09:10:53;9.60;;;7.90;;
29848;SDS011;16728;50.832;5.590;2023-09-30T09:14:00;8.20;;;6.60;;
29848;SDS011;16728;50.832;5.590;2023-09-30T09:17:02;8.88;;;7.40;;
29848;SDS011;16728;50.832;5.590;2023-09-30T09:20:06;9.18;;;8.20;;
29848;SDS011;16728;50.832;5.590;2023-09-30T09:23:11;8.95;;;7.68;;
29848;SDS011;16728;50.832;5.590;2023-09-30T09:26:26;8.18;;;7.20;;
29848;SDS011;16728;50.832;5.590;2023-09-30T09:32:31;7.50;;;6.70;;
29848;SDS011;16728;50.832;5.590;2023-09-30T09:35:34;8.77;;;7.05;;
29848;SDS011;16728;50.832;5.590;2023-09-30T09:41:50;8.75;;;7.25;;
29848;SDS011;16728;50.832;5.590;2023-09-30T09:44:54;8.77;;;7.53;;
29848;SDS011;16728;50.832;5.590;2023-09-30T09:47:58;8.90;;;7.35;;
29848;SDS011;16728;50.832;5.590;2023-09-30T09:51:00;9.05;;;7.57;;
29848;SDS011;16728;50.832;5.590;2023-09-30T09:54:03;10.07;;;8.43;;
29848;SDS011;16728;50.832;5.590;2023-09-30T09:57:08;11.23;;;8.13;;
29848;SDS011;16728;50.832;5.590;2023-09-30T10:00:12;8.82;;;7.50;;
29848;SDS011;16728;50.832;5.590;2023-09-30T10:03:16;12.45;;;8.13;;
29848;SDS011;16728;50.832;5.590;2023-09-30T10:06:18;21.23;;;8.98;;
29848;SDS011;16728;50.832;5.590;2023-09-30T10:09:22;11.27;;;8.02;;
29848;SDS011;16728;50.832;5.590;2023-09-30T10:12:25;10.25;;;8.48;;
29848;SDS011;16728;50.832;5.590;2023-09-30T10:18:30;10.27;;;8.10;;
29848;SDS011;16728;50.832;5.590;2023-09-30T10:25:35;9.82;;;8.38;;
29848;SDS011;16728;50.832;5.590;2023-09-30T10:28:38;10.43;;;8.45;;
29848;SDS011;16728;50.832;5.590;2023-09-30T10:31:51;10.05;;;8.30;;
29848;SDS011;16728;50.832;5.590;2023-09-30T10:34:54;13.95;;;8.43;;
29848;SDS011;16728;50.832;5.590;2023-09-30T10:44:46;9.60;;;7.18;;
29848;SDS011;16728;50.832;5.590;2023-09-30T10:47:48;10.32;;;7.55;;
29848;SDS011;16728;50.832;5.590;2023-09-30T10:50:51;10.80;;;7.40;;
29848;SDS011;16728;50.832;5.590;2023-09-30T10:53:55;13.40;;;8.43;;
29848;SDS011;16728;50.832;5.590;2023-09-30T10:57:02;13.93;;;9.15;;
29848;SDS011;16728;50.832;5.590;2023-09-30T11:00:11;14.02;;;9.35;;
29848;SDS011;16728;50.832;5.590;2023-09-30T11:03:15;12.43;;;9.45;;
29848;SDS011;16728;50.832;5.590;2023-09-30T11:06:20;14.45;;;11.45;;
29848;SDS011;16728;50.832;5.590;2023-09-30T11:09:23;14.32;;;11.35;;
29848;SDS011;16728;50.832;5.590;2023-09-30T11:12:25;15.18;;;11.35;;
29848;SDS011;16728;50.832;5.590;2023-09-30T11:15:27;15.88;;;10.48;;
29848;SDS011;16728;50.832;5.590;2023-09-30T11:18:30;14.35;;;9.40;;
29848;SDS011;16728;50.832;5.590;2023-09-30T11:24:35;11.32;;;7.43;;
29848;SDS011;16728;50.832;5.590;2023-09-30T11:27:38;13.02;;;9.02;;
29848;SDS011;16728;50.832;5.590;2023-09-30T11:33:56;16.58;;;9.88;;
29848;SDS011;16728;50.832;5.590;2023-09-30T11:37:02;16.75;;;10.68;;
29848;SDS011;16728;50.832;5.590;2023-09-30T11:40:12;15.05;;;8.60;;
29848;SDS011;16728;50.832;5.590;2023-09-30T11:43:15;16.08;;;9.63;;
29848;SDS011;16728;50.832;5.590;2023-09-30T11:46:18;14.52;;;9.68;;
29848;SDS011;16728;50.832;5.590;2023-09-30T11:49:33;12.40;;;9.20;;
29848;SDS011;16728;50.832;5.590;2023-09-30T11:52:43;16.08;;;10.70;;
29848;SDS011;16728;50.832;5.590;2023-09-30T11:55:48;14.75;;;9.52;;
29848;SDS011;16728;50.832;5.590;2023-09-30T11:58:50;14.00;;;8.57;;
29848;SDS011;16728;50.832;5.590;2023-09-30T12:01:51;13.18;;;9.07;;
29848;SDS011;16728;50.832;5.590;2023-09-30T12:05:14;14.13;;;8.45;;
29848;SDS011;16728;50.832;5.590;2023-09-30T12:08:18;10.48;;;7.85;;
29848;SDS011;16728;50.832;5.590;2023-09-30T12:11:21;13.38;;;8.70;;
29848;SDS011;16728;50.832;5.590;2023-09-30T12:14:25;12.48;;;8.25;;
29848;SDS011;16728;50.832;5.590;2023-09-30T12:17:27;10.32;;;6.85;;
29848;SDS011;16728;50.832;5.590;2023-09-30T12:20:29;12.05;;;6.35;;
29848;SDS011;16728;50.832;5.590;2023-09-30T12:23:32;8.10;;;5.95;;
29848;SDS011;16728;50.832;5.590;2023-09-30T12:26:34;12.35;;;6.05;;
29848;SDS011;16728;50.832;5.590;2023-09-30T12:29:36;11.02;;;6.15;;
29848;SDS011;16728;50.832;5.590;2023-09-30T12:32:40;9.82;;;5.40;;
29848;SDS011;16728;50.832;5.590;2023-09-30T12:35:42;7.35;;;4.38;;
29848;SDS011;16728;50.832;5.590;2023-09-30T12:38:45;8.63;;;4.72;;
29848;SDS011;16728;50.832;5.590;2023-09-30T12:41:47;7.55;;;4.15;;
29848;SDS011;16728;50.832;5.590;2023-09-30T12:44:49;10.70;;;4.38;;
29848;SDS011;16728;50.832;5.590;2023-09-30T12:47:51;6.53;;;4.63;;
29848;SDS011;16728;50.832;5.590;2023-09-30T12:50:55;9.07;;;4.55;;
29848;SDS011;16728;50.832;5.590;2023-09-30T12:53:58;7.55;;;4.18;;
29848;SDS011;16728;50.832;5.590;2023-09-30T12:57:00;9.43;;;4.55;;
29848;SDS011;16728;50.832;5.590;2023-09-30T13:00:01;7.05;;;4.28;;
29848;SDS011;16728;50.832;5.590;2023-09-30T13:03:04;9.07;;;4.70;;
29848;SDS011;16728;50.832;5.590;2023-09-30T13:06:06;11.75;;;4.78;;
29848;SDS011;16728;50.832;5.590;2023-09-30T13:09:08;8.40;;;3.42;;
29848;SDS011;16728;50.832;5.590;2023-09-30T13:12:13;6.30;;;2.75;;
29848;SDS011;16728;50.832;5.590;2023-09-30T13:15:15;7.85;;;3.45;;
29848;SDS011;16728;50.832;5.590;2023-09-30T13:18:17;5.60;;;2.72;;
29848;SDS011;16728;50.832;5.590;2023-09-30T13:21:19;7.55;;;3.47;;
29848;SDS011;16728;50.832;5.590;2023-09-30T13:24:22;7.22;;;3.38;;
29848;SDS011;16728;50.832;5.590;2023-09-30T13:27:24;9.50;;;3.67;;
29848;SDS011;16728;50.832;5.590;2023-09-30T13:30:26;6.43;;;3.67;;
29848;SDS011;16728;50.832;5.590;2023-09-30T13:33:28;7.65;;;3.42;;
29848;SDS011;16728;50.832;5.590;2023-09-30T13:36:30;6.47;;;3.38;;
29848;SDS011;16728;50.832;5.590;2023-09-30T13:39:32;7.35;;;3.67;;
29848;SDS011;16728;50.832;5.590;2023-09-30T13:42:35;7.15;;;3.50;;
29848;SDS011;16728;50.832;5.590;2023-09-30T13:45:37;5.55;;;3.30;;
29848;SDS011;16728;50.832;5.590;2023-09-30T13:48:40;7.65;;;3.67;;
29848;SDS011;16728;50.832;5.590;2023-09-30T13:51:42;6.00;;;3.20;;
29848;SDS011;16728;50.832;5.590;2023-09-30T13:54:44;5.28;;;3.33;;
29848;SDS011;16728;50.832;5.590;2023-09-30T13:57:47;5.63;;;2.67;;
29848;SDS011;16728;50.832;5.590;2023-09-30T14:00:50;5.45;;;3.30;;
29848;SDS011;16728;50.832;5.590;2023-09-30T14:03:55;5.75;;;3.08;;
29848;SDS011;16728;50.832;5.590;2023-09-30T14:06:59;7.43;;;3.22;;
29848;SDS011;16728;50.832;5.590;2023-09-30T14:10:04;4.97;;;2.80;;
29848;SDS011;16728;50.832;5.590;2023-09-30T14:13:07;4.70;;;2.90;;
29848;SDS011;16728;50.832;5.590;2023-09-30T14:16:09;5.65;;;2.70;;
29848;SDS011;16728;50.832;5.590;2023-09-30T14:19:11;6.70;;;3.40;;
29848;SDS011;16728;50.832;5.590;2023-09-30T14:22:15;5.53;;;2.60;;
29848;SDS011;16728;50.832;5.590;2023-09-30T14:25:19;3.92;;;3.05;;
29848;SDS011;16728;50.832;5.590;2023-09-30T14:28:22;4.80;;;2.75;;
29848;SDS011;16728;50.832;5.590;2023-09-30T14:31:24;4.88;;;2.85;;
29848;SDS011;16728;50.832;5.590;2023-09-30T14:34:26;5.63;;;2.42;;
29848;SDS011;16728;50.832;5.590;2023-09-30T14:37:28;6.70;;;3.00;;
29848;SDS011;16728;50.832;5.590;2023-09-30T14:40:35;6.55;;;2.88;;
29848;SDS011;16728;50.832;5.590;2023-09-30T14:43:38;7.07;;;3.25;;
29848;SDS011;16728;50.832;5.590;2023-09-30T14:46:40;5.68;;;2.92;;
29848;SDS011;16728;50.832;5.590;2023-09-30T14:49:42;5.68;;;2.95;;
29848;SDS011;16728;50.832;5.590;2023-09-30T14:52:44;4.43;;;2.65;;
29848;SDS011;16728;50.832;5.590;2023-09-30T14:55:47;5.10;;;2.77;;
29848;SDS011;16728;50.832;5.590;2023-09-30T14:58:49;6.30;;;3.00;;
29848;SDS011;16728;50.832;5.590;2023-09-30T15:01:51;5.70;;;3.00;;
29848;SDS011;16728;50.832;5.590;2023-09-30T15:04:54;5.90;;;3.25;;
29848;SDS011;16728;50.832;5.590;2023-09-30T15:07:56;5.28;;;3.00;;
29848;SDS011;16728;50.832;5.590;2023-09-30T15:11:01;8.07;;;2.70;;
29848;SDS011;16728;50.832;5.590;2023-09-30T15:14:03;5.57;;;3.10;;
29848;SDS011;16728;50.832;5.590;2023-09-30T15:17:08;8.38;;;2.97;;
29848;SDS011;16728;50.832;5.590;2023-09-30T15:20:10;4.43;;;2.42;;
29848;SDS011;16728;50.832;5.590;2023-09-30T15:23:15;7.63;;;3.23;;
29848;SDS011;16728;50.832;5.590;2023-09-30T15:26:17;6.15;;;2.80;;
29848;SDS011;16728;50.832;5.590;2023-09-30T15:39:54;5.85;;;2.85;;
29848;SDS011;16728;50.832;5.590;2023-09-30T15:43:05;5.78;;;2.78;;
29848;SDS011;16728;50.832;5.590;2023-09-30T15:46:10;5.75;;;2.88;;
29848;SDS011;16728;50.832;5.590;2023-09-30T15:49:12;5.68;;;2.85;;
29848;SDS011;16728;50.832;5.590;2023-09-30T15:52:14;6.13;;;2.78;;
29848;SDS011;16728;50.832;5.590;2023-09-30T15:55:16;7.00;;;3.00;;
29848;SDS011;16728;50.832;5.590;2023-09-30T15:58:18;6.20;;;2.95;;
29848;SDS011;16728;50.832;5.590;2023-09-30T16:01:34;5.97;;;3.33;;
29848;SDS011;16728;50.832;5.590;2023-09-30T16:04:36;5.97;;;3.17;;
29848;SDS011;16728;50.832;5.590;2023-09-30T16:07:38;6.70;;;3.22;;
29848;SDS011;16728;50.832;5.590;2023-09-30T16:10:40;5.28;;;3.25;;
29848;SDS011;16728;50.832;5.590;2023-09-30T16:13:56;5.63;;;3.65;;
29848;SDS011;16728;50.832;5.590;2023-09-30T16:17:00;5.95;;;3.47;;
29848;SDS011;16728;50.832;5.590;2023-09-30T16:20:11;7.07;;;3.67;;
29848;SDS011;16728;50.832;5.590;2023-09-30T16:23:14;5.85;;;3.60;;
29848;SDS011;16728;50.832;5.590;2023-09-30T16:33:23;5.57;;;3.63;;
29848;SDS011;16728;50.832;5.590;2023-09-30T16:39:57;7.80;;;4.18;;
29848;SDS011;16728;50.832;5.590;2023-09-30T16:42:59;5.43;;;4.07;;
29848;SDS011;16728;50.832;5.590;2023-09-30T16:46:01;8.20;;;4.15;;
29848;SDS011;16728;50.832;5.590;2023-09-30T16:49:07;8.07;;;3.80;;
29848;SDS011;16728;50.832;5.590;2023-09-30T16:52:10;7.30;;;4.20;;
29848;SDS011;16728;50.832;5.590;2023-09-30T16:55:12;7.32;;;3.78;;
29848;SDS011;16728;50.832;5.590;2023-09-30T16:58:14;6.13;;;3.50;;
29848;SDS011;16728;50.832;5.590;2023-09-30T17:01:16;5.87;;;3.87;;
29848;SDS011;16728;50.832;5.590;2023-09-30T17:04:19;6.13;;;3.57;;
29848;SDS011;16728;50.832;5.590;2023-09-30T17:07:21;6.72;;;4.22;;
29848;SDS011;16728;50.832;5.590;2023-09-30T17:10:23;4.03;;;3.60;;
29848;SDS011;16728;50.832;5.590;2023-09-30T17:13:26;5.68;;;4.18;;
29848;SDS011;16728;50.832;5.590;2023-09-30T17:16:28;8.48;;;4.45;;
29848;SDS011;16728;50.832;5.590;2023-09-30T17:19:30;9.68;;;5.00;;
29848;SDS011;16728;50.832;5.590;2023-09-30T17:22:33;9.25;;;4.88;;
29848;SDS011;16728;50.832;5.590;2023-09-30T17:25:35;9.15;;;5.38;;
29848;SDS011;16728;50.832;5.590;2023-09-30T17:28:39;9.02;;;5.15;;
29848;SDS011;16728;50.832;5.590;2023-09-30T17:31:41;11.40;;;5.18;;
29848;SDS011;16728;50.832;5.590;2023-09-30T17:34:44;10.00;;;5.22;;
29848;SDS011;16728;50.832;5.590;2023-09-30T17:37:46;10.50;;;5.43;;
29848;SDS011;16728;50.832;5.590;2023-09-30T17:40:48;12.35;;;5.55;;
29848;SDS011;16728;50.832;5.590;2023-09-30T17:43:50;9.40;;;5.15;;
29848;SDS011;16728;50.832;5.590;2023-09-30T17:46:52;16.52;;;5.97;;
29848;SDS011;16728;50.832;5.590;2023-09-30T17:49:55;10.32;;;5.32;;
29848;SDS011;16728;50.832;5.590;2023-09-30T17:52:57;9.15;;;5.10;;
29848;SDS011;16728;50.832;5.590;2023-09-30T17:56:20;8.95;;;5.80;;
29848;SDS011;16728;50.832;5.590;2023-09-30T17:59:22;9.90;;;6.10;;
29848;SDS011;16728;50.832;5.590;2023-09-30T18:02:24;7.72;;;5.55;;
29848;SDS011;16728;50.832;5.590;2023-09-30T18:05:26;8.65;;;5.65;;
29848;SDS011;16728;50.832;5.590;2023-09-30T18:08:28;10.77;;;6.50;;
29848;SDS011;16728;50.832;5.590;2023-09-30T18:11:30;17.90;;;10.60;;
29848;SDS011;16728;50.832;5.590;2023-09-30T18:14:32;17.10;;;9.75;;
29848;SDS011;16728;50.832;5.590;2023-09-30T18:17:34;20.85;;;13.13;;
29848;SDS011;16728;50.832;5.590;2023-09-30T18:20:38;48.63;;;28.65;;
29848;SDS011;16728;50.832;5.590;2023-09-30T18:23:42;42.50;;;26.85;;
29848;SDS011;16728;50.832;5.590;2023-09-30T18:26:44;23.75;;;15.60;;
29848;SDS011;16728;50.832;5.590;2023-09-30T18:29:46;13.88;;;10.25;;
29848;SDS011;16728;50.832;5.590;2023-09-30T18:32:48;16.15;;;11.10;;
29848;SDS011;16728;50.832;5.590;2023-09-30T18:35:50;20.55;;;11.05;;
29848;SDS011;16728;50.832;5.590;2023-09-30T18:38:53;19.15;;;13.35;;
29848;SDS011;16728;50.832;5.590;2023-09-30T18:41:55;21.10;;;12.45;;
29848;SDS011;16728;50.832;5.590;2023-09-30T18:44:57;18.98;;;13.27;;
29848;SDS011;16728;50.832;5.590;2023-09-30T18:47:58;20.00;;;12.57;;
29848;SDS011;16728;50.832;5.590;2023-09-30T18:51:00;16.15;;;11.70;;
29848;SDS011;16728;50.832;5.590;2023-09-30T18:54:02;20.45;;;11.82;;
29848;SDS011;16728;50.832;5.590;2023-09-30T18:57:04;15.05;;;9.07;;
29848;SDS011;16728;50.832;5.590;2023-09-30T19:00:06;10.63;;;7.97;;
29848;SDS011;16728;50.832;5.590;2023-09-30T19:03:09;10.50;;;7.57;;
29848;SDS011;16728;50.832;5.590;2023-09-30T19:06:11;14.47;;;8.10;;
29848;SDS011;16728;50.832;5.590;2023-09-30T19:09:14;12.15;;;8.40;;
29848;SDS011;16728;50.832;5.590;2023-09-30T19:12:16;12.75;;;8.65;;
29848;SDS011;16728;50.832;5.590;2023-09-30T19:15:19;10.57;;;7.68;;
29848;SDS011;16728;50.832;5.590;2023-09-30T19:18:21;11.38;;;6.53;;
29848;SDS011;16728;50.832;5.590;2023-09-30T19:24:38;11.50;;;6.28;;
29848;SDS011;16728;50.832;5.590;2023-09-30T19:27:40;11.77;;;6.82;;
29848;SDS011;16728;50.832;5.590;2023-09-30T19:30:43;9.63;;;6.72;;